createdAt,value
2017-04-13T00:00:27.094Z,1001.74
2017-04-13T00:01:07.671Z,1001.69
2017-04-13T00:01:48.249Z,1001.66
2017-04-13T00:02:28.819Z,1001.68
2017-04-13T00:03:09.410Z,1001.71
2017-04-13T00:03:49.996Z,1001.7
2017-04-13T00:04:30.580Z,1001.66
2017-04-13T00:05:11.158Z,1001.69
2017-04-13T00:05:51.751Z,1001.75
2017-04-13T00:06:32.369Z,1001.72
2017-04-13T00:07:13.051Z,1001.78
2017-04-13T00:07:53.675Z,1001.74
2017-04-13T00:08:34.262Z,1001.8
2017-04-13T00:09:14.848Z,1001.75
2017-04-13T00:09:55.429Z,1001.84
2017-04-13T00:10:36.035Z,1001.8
2017-04-13T00:11:16.600Z,1001.83
2017-04-13T00:11:57.186Z,1001.78
2017-04-13T00:12:37.763Z,1001.77
2017-04-13T00:13:18.357Z,1001.76
2017-04-13T00:13:58.938Z,1001.74
2017-04-13T00:14:39.523Z,1001.82
2017-04-13T00:15:20.094Z,1001.72
2017-04-13T00:16:00.678Z,1001.75
2017-04-13T00:16:41.260Z,1001.75
2017-04-13T00:17:21.826Z,1001.71
2017-04-13T00:18:02.400Z,1001.71
2017-04-13T00:18:42.992Z,1001.74
2017-04-13T00:19:23.577Z,1001.75
2017-04-13T00:20:04.156Z,1001.73
2017-04-13T00:20:44.740Z,1001.67
2017-04-13T00:21:25.323Z,1001.7
2017-04-13T00:22:05.904Z,1001.7
2017-04-13T00:22:46.476Z,1001.72
2017-04-13T00:23:27.056Z,1001.69
2017-04-13T00:24:07.639Z,1001.75
2017-04-13T00:24:48.215Z,1001.73
2017-04-13T00:25:28.806Z,1001.66
2017-04-13T00:26:09.391Z,1001.67
2017-04-13T00:26:49.963Z,1001.67
2017-04-13T00:27:30.556Z,1001.66
2017-04-13T00:28:11.142Z,1001.65
2017-04-13T00:28:51.720Z,1001.65
2017-04-13T00:29:32.315Z,1001.66
2017-04-13T00:30:12.909Z,1001.61
2017-04-13T00:30:53.501Z,1001.64
2017-04-13T00:31:34.082Z,1001.66
2017-04-13T00:32:14.669Z,1001.7
2017-04-13T00:32:55.239Z,1001.63
2017-04-13T00:33:35.831Z,1001.66
2017-04-13T00:34:16.435Z,1001.69
2017-04-13T00:34:57.013Z,1001.7
2017-04-13T00:35:37.612Z,1001.63
2017-04-13T00:36:18.230Z,1001.72
2017-04-13T00:36:58.830Z,1001.69
2017-04-13T00:37:39.391Z,1001.66
2017-04-13T00:38:20.000Z,1001.65
2017-04-13T00:39:00.579Z,1001.7
2017-04-13T00:39:41.175Z,1001.68
2017-04-13T00:40:21.767Z,1001.65
2017-04-13T00:41:02.322Z,1001.64
2017-04-13T00:41:42.888Z,1001.69
2017-04-13T00:42:23.487Z,1001.66
2017-04-13T00:43:04.060Z,1001.67
2017-04-13T00:43:44.634Z,1001.71
2017-04-13T00:44:25.264Z,1001.68
2017-04-13T00:45:05.852Z,1001.68
2017-04-13T00:45:46.427Z,1001.67
2017-04-13T00:46:27.000Z,1001.67
2017-04-13T00:47:07.572Z,1001.69
2017-04-13T00:47:48.155Z,1001.73
2017-04-13T00:48:28.747Z,1001.76
2017-04-13T00:49:09.333Z,1001.74
2017-04-13T00:49:49.902Z,1001.74
2017-04-13T00:50:30.478Z,1001.8
2017-04-13T00:51:11.048Z,1001.77
2017-04-13T00:51:51.637Z,1001.76
2017-04-13T00:52:32.204Z,1001.75
2017-04-13T00:53:12.771Z,1001.78
2017-04-13T00:53:53.354Z,1001.74
2017-04-13T00:54:33.953Z,1001.79
2017-04-13T00:55:14.565Z,1001.77
2017-04-13T00:55:55.116Z,1001.78
2017-04-13T00:56:35.729Z,1001.75
2017-04-13T00:57:16.321Z,1001.8
2017-04-13T00:57:56.894Z,1001.81
2017-04-13T00:58:37.512Z,1001.77
2017-04-13T00:59:18.086Z,1001.81
2017-04-13T00:59:58.664Z,1001.82
2017-04-13T01:00:39.266Z,1001.8
2017-04-13T01:01:19.828Z,1001.85
2017-04-13T01:02:00.404Z,1001.82
2017-04-13T01:02:40.982Z,1001.93
2017-04-13T01:03:21.557Z,1001.83
2017-04-13T01:04:02.195Z,1001.89
2017-04-13T01:04:42.727Z,1001.86
2017-04-13T01:05:23.328Z,1001.92
2017-04-13T01:06:03.905Z,1001.87
2017-04-13T01:06:44.460Z,1001.84
2017-04-13T01:07:25.031Z,1001.91
2017-04-13T01:08:05.626Z,1001.9
2017-04-13T01:08:46.234Z,1001.89
2017-04-13T01:09:26.826Z,1001.92
2017-04-13T01:10:07.390Z,1001.93
2017-04-13T01:10:47.964Z,1001.95
2017-04-13T01:11:28.541Z,1001.9
2017-04-13T01:12:09.123Z,1001.88
2017-04-13T01:12:49.689Z,1001.9
2017-04-13T01:13:30.263Z,1001.89
2017-04-13T01:14:10.844Z,1001.87
2017-04-13T01:14:51.454Z,1001.89
2017-04-13T01:15:32.043Z,1001.94
2017-04-13T01:16:12.624Z,1001.87
2017-04-13T01:16:53.201Z,1001.89
2017-04-13T01:17:33.803Z,1001.87
2017-04-13T01:18:14.360Z,1001.91
2017-04-13T01:18:54.945Z,1001.89
2017-04-13T01:19:35.520Z,1001.87
2017-04-13T01:20:16.101Z,1001.92
2017-04-13T01:20:56.683Z,1001.88
2017-04-13T01:21:37.255Z,1001.9
2017-04-13T01:22:17.846Z,1001.89
2017-04-13T01:22:58.458Z,1001.84
2017-04-13T01:23:39.053Z,1001.94
2017-04-13T01:24:19.613Z,1001.9
2017-04-13T01:25:00.192Z,1001.91
2017-04-13T01:25:40.831Z,1001.91
2017-04-13T01:26:21.426Z,1001.87
2017-04-13T01:27:02.082Z,1001.95
2017-04-13T01:27:42.700Z,1001.95
2017-04-13T01:28:23.285Z,1001.95
2017-04-13T01:29:03.893Z,1001.94
2017-04-13T01:29:44.473Z,1001.96
2017-04-13T01:30:25.081Z,1001.98
2017-04-13T01:31:05.676Z,1001.97
2017-04-13T01:31:46.241Z,1001.95
2017-04-13T01:32:26.811Z,1001.98
2017-04-13T01:33:07.380Z,1001.95
2017-04-13T01:33:47.960Z,1001.93
2017-04-13T01:34:28.535Z,1001.97
2017-04-13T01:35:09.148Z,1001.96
2017-04-13T01:35:49.715Z,1001.99
2017-04-13T01:36:30.293Z,1001.98
2017-04-13T01:37:10.905Z,1001.98
2017-04-13T01:37:51.489Z,1001.97
2017-04-13T01:38:32.111Z,1001.94
2017-04-13T01:39:12.683Z,1002
2017-04-13T01:39:53.263Z,1001.98
2017-04-13T01:40:33.830Z,1002.02
2017-04-13T01:41:14.420Z,1002.03
2017-04-13T01:41:55.014Z,1001.99
2017-04-13T01:42:35.587Z,1001.97
2017-04-13T01:43:16.203Z,1001.93
2017-04-13T01:43:56.797Z,1001.94
2017-04-13T01:44:37.381Z,1001.97
2017-04-13T01:45:17.955Z,1002.01
2017-04-13T01:45:58.546Z,1001.96
2017-04-13T01:46:39.138Z,1001.98
2017-04-13T01:47:19.780Z,1001.95
2017-04-13T01:48:00.380Z,1001.94
2017-04-13T01:48:40.954Z,1001.92
2017-04-13T01:49:21.537Z,1001.91
2017-04-13T01:50:02.128Z,1001.94
2017-04-13T01:50:42.709Z,1001.95
2017-04-13T01:51:23.295Z,1001.97
2017-04-13T01:52:03.879Z,1001.95
2017-04-13T01:52:44.477Z,1001.93
2017-04-13T01:53:25.072Z,1001.93
2017-04-13T01:54:05.644Z,1001.85
2017-04-13T01:54:46.233Z,1001.91
2017-04-13T01:55:26.832Z,1001.86
2017-04-13T01:56:07.418Z,1001.92
2017-04-13T01:56:48.003Z,1001.86
2017-04-13T01:57:28.578Z,1001.88
2017-04-13T01:58:09.142Z,1001.93
2017-04-13T01:58:49.714Z,1001.9
2017-04-13T01:59:30.300Z,1001.94
2017-04-13T02:00:10.891Z,1001.9
2017-04-13T02:00:51.477Z,1001.84
2017-04-13T02:01:32.050Z,1001.86
2017-04-13T02:02:12.638Z,1001.83
2017-04-13T02:02:53.225Z,1001.83
2017-04-13T02:03:33.785Z,1001.84
2017-04-13T02:04:14.394Z,1001.84
2017-04-13T02:04:54.970Z,1001.88
2017-04-13T02:05:35.570Z,1001.81
2017-04-13T02:06:16.156Z,1001.84
2017-04-13T02:06:56.733Z,1001.76
2017-04-13T02:07:37.369Z,1001.77
2017-04-13T02:08:17.951Z,1001.82
2017-04-13T02:08:58.530Z,1001.79
2017-04-13T02:09:39.112Z,1001.81
2017-04-13T02:10:19.683Z,1001.82
2017-04-13T02:11:00.265Z,1001.8
2017-04-13T02:11:40.848Z,1001.84
2017-04-13T02:12:21.473Z,1001.85
2017-04-13T02:13:02.028Z,1001.81
2017-04-13T02:13:42.606Z,1001.91
2017-04-13T02:14:23.188Z,1001.86
2017-04-13T02:15:03.793Z,1001.82
2017-04-13T02:15:44.364Z,1001.85
2017-04-13T02:16:24.950Z,1001.89
2017-04-13T02:17:05.533Z,1001.87
2017-04-13T02:17:46.136Z,1001.88
2017-04-13T02:18:27.526Z,1001.85
2017-04-13T02:19:08.098Z,1001.85
2017-04-13T02:19:48.660Z,1001.81
2017-04-13T02:20:29.252Z,1001.82
2017-04-13T02:21:09.850Z,1001.84
2017-04-13T02:21:50.438Z,1001.82
2017-04-13T02:22:31.055Z,1001.81
2017-04-13T02:23:11.649Z,1001.82
2017-04-13T02:23:52.242Z,1001.76
2017-04-13T02:24:32.841Z,1001.83
2017-04-13T02:25:13.407Z,1001.79
2017-04-13T02:25:53.991Z,1001.82
2017-04-13T02:26:34.566Z,1001.81
2017-04-13T02:27:15.161Z,1001.83
2017-04-13T02:27:55.749Z,1001.86
2017-04-13T02:28:36.322Z,1001.84
2017-04-13T02:29:16.918Z,1001.85
2017-04-13T02:29:57.482Z,1001.85
2017-04-13T02:30:38.091Z,1001.82
2017-04-13T02:31:18.662Z,1001.84
2017-04-13T02:31:59.250Z,1001.83
2017-04-13T02:32:39.826Z,1001.79
2017-04-13T02:33:20.411Z,1001.84
2017-04-13T02:34:00.980Z,1001.86
2017-04-13T02:34:41.582Z,1001.86
2017-04-13T02:35:22.147Z,1001.84
2017-04-13T02:36:02.723Z,1001.88
2017-04-13T02:36:43.274Z,1001.81
2017-04-13T02:37:23.874Z,1001.82
2017-04-13T02:38:04.464Z,1001.79
2017-04-13T02:38:45.043Z,1001.81
2017-04-13T02:39:25.621Z,1001.82
2017-04-13T02:40:06.201Z,1001.85
2017-04-13T02:40:46.779Z,1001.83
2017-04-13T02:41:27.364Z,1001.85
2017-04-13T02:42:07.952Z,1001.86
2017-04-13T02:42:48.527Z,1001.86
2017-04-13T02:43:29.093Z,1001.84
2017-04-13T02:44:09.713Z,1001.85
2017-04-13T02:44:50.281Z,1001.85
2017-04-13T02:45:30.845Z,1001.87
2017-04-13T02:46:11.463Z,1001.82
2017-04-13T02:46:52.038Z,1001.82
2017-04-13T02:47:32.598Z,1001.85
2017-04-13T02:48:13.182Z,1001.88
2017-04-13T02:48:53.830Z,1001.88
2017-04-13T02:49:34.435Z,1001.86
2017-04-13T02:50:15.044Z,1001.82
2017-04-13T02:50:55.621Z,1001.87
2017-04-13T02:51:36.202Z,1001.88
2017-04-13T02:52:16.781Z,1001.97
2017-04-13T02:52:57.459Z,1001.92
2017-04-13T02:53:38.039Z,1001.93
2017-04-13T02:54:18.628Z,1001.94
2017-04-13T02:54:59.205Z,1001.91
2017-04-13T02:55:39.830Z,1001.93
2017-04-13T02:56:20.430Z,1001.95
2017-04-13T02:57:01.027Z,1001.89
2017-04-13T02:57:41.596Z,1001.93
2017-04-13T02:58:22.177Z,1001.91
2017-04-13T02:59:02.769Z,1001.92
2017-04-13T02:59:43.360Z,1001.92
2017-04-13T03:00:23.976Z,1001.94
2017-04-13T03:01:04.551Z,1001.91
2017-04-13T03:01:45.136Z,1001.88
2017-04-13T03:02:25.725Z,1001.94
2017-04-13T03:03:06.299Z,1001.9
2017-04-13T03:03:46.875Z,1001.94
2017-04-13T03:04:27.442Z,1001.91
2017-04-13T03:05:08.003Z,1001.93
2017-04-13T03:05:48.595Z,1001.91
2017-04-13T03:06:29.173Z,1001.88
2017-04-13T03:07:09.774Z,1001.9
2017-04-13T03:07:50.352Z,1001.91
2017-04-13T03:08:30.939Z,1001.95
2017-04-13T03:09:11.506Z,1001.94
2017-04-13T03:09:52.083Z,1001.92
2017-04-13T03:10:32.683Z,1001.92
2017-04-13T03:11:13.286Z,1001.96
2017-04-13T03:11:53.850Z,1001.98
2017-04-13T03:12:34.447Z,1001.98
2017-04-13T03:13:15.027Z,1001.96
2017-04-13T03:13:55.593Z,1001.96
2017-04-13T03:14:36.186Z,1001.95
2017-04-13T03:15:16.808Z,1001.9
2017-04-13T03:15:57.355Z,1001.95
2017-04-13T03:16:37.928Z,1001.9
2017-04-13T03:17:18.516Z,1001.94
2017-04-13T03:17:59.119Z,1001.92
2017-04-13T03:18:39.702Z,1001.89
2017-04-13T03:19:20.283Z,1001.92
2017-04-13T03:20:00.848Z,1001.95
2017-04-13T03:20:41.433Z,1002
2017-04-13T03:21:22.028Z,1001.93
2017-04-13T03:22:02.605Z,1001.9
2017-04-13T03:22:43.178Z,1001.89
2017-04-13T03:23:23.757Z,1001.92
2017-04-13T03:24:04.353Z,1001.88
2017-04-13T03:24:44.930Z,1001.93
2017-04-13T03:25:25.509Z,1001.87
2017-04-13T03:26:06.112Z,1001.88
2017-04-13T03:26:46.690Z,1001.94
2017-04-13T03:27:27.256Z,1001.89
2017-04-13T03:28:07.821Z,1001.82
2017-04-13T03:28:48.444Z,1001.83
2017-04-13T03:29:29.026Z,1001.84
2017-04-13T03:30:09.595Z,1001.86
2017-04-13T03:30:50.178Z,1001.83
2017-04-13T03:31:30.766Z,1001.84
2017-04-13T03:32:11.349Z,1001.85
2017-04-13T03:32:51.941Z,1001.84
2017-04-13T03:33:32.524Z,1001.84
2017-04-13T03:34:13.105Z,1001.85
2017-04-13T03:34:53.694Z,1001.86
2017-04-13T03:35:34.306Z,1001.87
2017-04-13T03:36:14.875Z,1001.79
2017-04-13T03:36:55.448Z,1001.81
2017-04-13T03:37:36.028Z,1001.79
2017-04-13T03:38:16.604Z,1001.78
2017-04-13T03:38:57.171Z,1001.82
2017-04-13T03:39:37.750Z,1001.81
2017-04-13T03:40:18.324Z,1001.82
2017-04-13T03:40:58.916Z,1001.85
2017-04-13T03:41:39.526Z,1001.81
2017-04-13T03:42:20.092Z,1001.84
2017-04-13T03:43:00.668Z,1001.84
2017-04-13T03:43:41.274Z,1001.85
2017-04-13T03:44:21.861Z,1001.83
2017-04-13T03:45:02.439Z,1001.82
2017-04-13T03:45:43.021Z,1001.8
2017-04-13T03:46:23.610Z,1001.8
2017-04-13T03:47:04.181Z,1001.83
2017-04-13T03:47:44.763Z,1001.75
2017-04-13T03:48:25.356Z,1001.81
2017-04-13T03:49:05.934Z,1001.77
2017-04-13T03:49:46.546Z,1001.73
2017-04-13T03:50:27.123Z,1001.74
2017-04-13T03:51:07.722Z,1001.79
2017-04-13T03:51:48.298Z,1001.86
2017-04-13T03:52:28.882Z,1001.8
2017-04-13T03:53:09.469Z,1001.8
2017-04-13T03:53:50.059Z,1001.82
2017-04-13T03:54:30.628Z,1001.82
2017-04-13T03:55:11.204Z,1001.84
2017-04-13T03:55:51.801Z,1001.83
2017-04-13T03:56:32.390Z,1001.83
2017-04-13T03:57:13.004Z,1001.85
2017-04-13T03:57:53.584Z,1001.86
2017-04-13T03:58:34.187Z,1001.9
2017-04-13T03:59:14.791Z,1001.93
2017-04-13T03:59:55.393Z,1001.91
2017-04-13T04:00:35.966Z,1001.91
2017-04-13T04:01:16.539Z,1001.94
2017-04-13T04:01:57.120Z,1001.92
2017-04-13T04:02:37.705Z,1001.95
2017-04-13T04:03:18.285Z,1001.95
2017-04-13T04:03:58.883Z,1001.92
2017-04-13T04:04:39.466Z,1001.91
2017-04-13T04:05:20.054Z,1001.95
2017-04-13T04:06:00.624Z,1001.97
2017-04-13T04:06:41.208Z,1001.99
2017-04-13T04:07:21.833Z,1001.97
2017-04-13T04:08:02.426Z,1001.98
2017-04-13T04:09:55.289Z,1001.95
2017-04-13T04:10:35.864Z,1001.96
2017-04-13T04:11:16.444Z,1001.94
2017-04-13T04:11:57.067Z,1001.96
2017-04-13T04:12:37.646Z,1001.96
2017-04-13T04:13:18.239Z,1001.96
2017-04-13T04:13:58.800Z,1001.94
2017-04-13T04:14:39.363Z,1001.95
2017-04-13T04:15:19.948Z,1001.98
2017-04-13T04:16:00.520Z,1001.95
2017-04-13T04:16:41.102Z,1001.94
2017-04-13T04:17:21.682Z,1002.01
2017-04-13T04:18:02.316Z,1002.01
2017-04-13T04:18:42.890Z,1002
2017-04-13T04:19:23.476Z,1002
2017-04-13T04:20:04.078Z,1002.03
2017-04-13T04:23:34.307Z,1002.05
2017-04-13T04:24:14.870Z,1002.08
2017-04-13T04:24:55.451Z,1002.05
2017-04-13T04:25:36.023Z,1002.09
2017-04-13T04:26:16.581Z,1002.09
2017-04-13T04:26:57.181Z,1002.13
2017-04-13T04:27:37.743Z,1002.09
2017-04-13T04:28:18.316Z,1002.13
2017-04-13T04:28:58.895Z,1002.14
2017-04-13T04:29:39.506Z,1002.12
2017-04-13T04:30:20.080Z,1002.15
2017-04-13T04:31:00.646Z,1002.13
2017-04-13T04:31:41.215Z,1002.12
2017-04-13T04:32:21.782Z,1002.14
2017-04-13T04:33:02.373Z,1002.14
2017-04-13T04:33:42.951Z,1002.18
2017-04-13T04:34:23.526Z,1002.16
2017-04-13T04:35:04.100Z,1002.21
2017-04-13T04:35:44.694Z,1002.17
2017-04-13T04:36:25.331Z,1002.18
2017-04-13T04:37:05.945Z,1002.2
2017-04-13T04:37:46.515Z,1002.16
2017-04-13T04:38:27.106Z,1002.15
2017-04-13T04:39:07.694Z,1002.16
2017-04-13T04:39:48.306Z,1002.15
2017-04-13T04:40:28.883Z,1002.17
2017-04-13T04:41:09.467Z,1002.19
2017-04-13T04:41:50.035Z,1002.15
2017-04-13T04:42:30.602Z,1002.11
2017-04-13T04:43:11.183Z,1002.14
2017-04-13T04:43:51.838Z,1002.15
2017-04-13T04:44:32.394Z,1002.21
2017-04-13T04:45:12.994Z,1002.19
2017-04-13T04:45:53.618Z,1002.14
2017-04-13T04:46:34.177Z,1002.12
2017-04-13T04:47:14.783Z,1002.11
2017-04-13T04:47:55.407Z,1002.15
2017-04-13T04:48:35.993Z,1002.14
2017-04-13T04:49:16.594Z,1002.17
2017-04-13T04:49:57.179Z,1002.16
2017-04-13T04:50:37.747Z,1002.17
2017-04-13T04:51:18.343Z,1002.21
2017-04-13T04:51:58.926Z,1002.2
2017-04-13T04:52:39.511Z,1002.22
2017-04-13T04:53:20.074Z,1002.2
2017-04-13T04:54:00.635Z,1002.22
2017-04-13T04:54:41.203Z,1002.25
2017-04-13T04:55:21.771Z,1002.21
2017-04-13T04:56:02.359Z,1002.2
2017-04-13T04:56:42.973Z,1002.2
2017-04-13T04:57:23.571Z,1002.2
2017-04-13T04:58:04.167Z,1002.17
2017-04-13T04:58:44.764Z,1002.21
2017-04-13T04:59:25.353Z,1002.19
2017-04-13T05:00:05.932Z,1002.22
2017-04-13T05:00:46.505Z,1002.21
2017-04-13T05:01:27.100Z,1002.22
2017-04-13T05:02:07.746Z,1002.28
2017-04-13T05:02:48.294Z,1002.31
2017-04-13T05:03:28.930Z,1002.28
2017-04-13T05:04:09.440Z,1002.32
2017-04-13T05:04:50.000Z,1002.25
2017-04-13T05:05:30.609Z,1002.25
2017-04-13T05:06:11.195Z,1002.24
2017-04-13T05:06:51.758Z,1002.22
2017-04-13T05:07:32.321Z,1002.28
2017-04-13T05:08:12.925Z,1002.3
2017-04-13T05:08:53.502Z,1002.32
2017-04-13T05:09:34.189Z,1002.3
2017-04-13T05:10:14.775Z,1002.27
2017-04-13T05:10:55.351Z,1002.29
2017-04-13T05:11:35.921Z,1002.32
2017-04-13T05:12:16.490Z,1002.34
2017-04-13T05:12:57.081Z,1002.32
2017-04-13T05:13:37.665Z,1002.26
2017-04-13T05:14:18.251Z,1002.27
2017-04-13T05:14:58.860Z,1002.3
2017-04-13T05:15:39.426Z,1002.28
2017-04-13T05:16:20.017Z,1002.26
2017-04-13T05:17:00.581Z,1002.31
2017-04-13T05:17:41.169Z,1002.25
2017-04-13T05:18:21.988Z,1002.3
2017-04-13T05:19:02.586Z,1002.31
2017-04-13T05:19:43.163Z,1002.28
2017-04-13T05:20:23.722Z,1002.36
2017-04-13T05:21:04.328Z,1002.27
2017-04-13T05:21:44.933Z,1002.38
2017-04-13T05:22:25.526Z,1002.33
2017-04-13T05:23:06.107Z,1002.31
2017-04-13T05:23:46.669Z,1002.32
2017-04-13T05:24:27.261Z,1002.34
2017-04-13T05:25:07.846Z,1002.36
2017-04-13T05:25:48.432Z,1002.41
2017-04-13T05:26:29.006Z,1002.37
2017-04-13T05:27:09.923Z,1002.33
2017-04-13T05:27:50.590Z,1002.37
2017-04-13T05:28:31.220Z,1002.39
2017-04-13T05:29:11.797Z,1002.35
2017-04-13T05:29:52.388Z,1002.33
2017-04-13T05:30:32.967Z,1002.3
2017-04-13T05:31:13.565Z,1002.3
2017-04-13T05:31:54.367Z,1002.35
2017-04-13T05:32:35.091Z,1002.37
2017-04-13T05:33:15.876Z,1002.38
2017-04-13T05:33:56.443Z,1002.46
2017-04-13T05:34:37.042Z,1002.39
2017-04-13T05:35:17.741Z,1002.41
2017-04-13T05:35:58.325Z,1002.35
2017-04-13T05:36:38.900Z,1002.44
2017-04-13T05:37:19.515Z,1002.44
2017-04-13T05:38:00.079Z,1002.37
2017-04-13T05:38:40.662Z,1002.41
2017-04-13T05:39:21.306Z,1002.42
2017-04-13T05:40:01.873Z,1002.38
2017-04-13T05:40:42.457Z,1002.42
2017-04-13T05:41:23.058Z,1002.43
2017-04-13T05:42:03.634Z,1002.44
2017-04-13T05:42:44.275Z,1002.43
2017-04-13T05:43:24.850Z,1002.48
2017-04-13T05:44:05.471Z,1002.47
2017-04-13T05:44:46.054Z,1002.5
2017-04-13T05:45:26.643Z,1002.51
2017-04-13T05:46:07.232Z,1002.5
2017-04-13T05:46:47.856Z,1002.5
2017-04-13T05:47:28.427Z,1002.49
2017-04-13T05:48:09.002Z,1002.54
2017-04-13T05:48:49.617Z,1002.49
2017-04-13T05:49:30.209Z,1002.54
2017-04-13T05:50:11.286Z,1002.49
2017-04-13T05:50:55.504Z,1002.53
2017-04-13T05:51:36.134Z,1002.57
2017-04-13T05:52:16.688Z,1002.53
2017-04-13T05:52:57.272Z,1002.57
2017-04-13T05:53:37.859Z,1002.56
2017-04-13T05:54:18.431Z,1002.55
2017-04-13T05:54:59.002Z,1002.64
2017-04-13T05:55:39.588Z,1002.61
2017-04-13T05:56:20.174Z,1002.64
2017-04-13T05:57:00.731Z,1002.64
2017-04-13T05:57:41.309Z,1002.65
2017-04-13T05:58:21.893Z,1002.67
2017-04-13T05:59:02.490Z,1002.71
2017-04-13T05:59:43.143Z,1002.71
2017-04-13T06:00:23.757Z,1002.74
2017-04-13T06:01:04.334Z,1002.71
2017-04-13T06:01:44.936Z,1002.71
2017-04-13T06:02:25.530Z,1002.77
2017-04-13T06:03:06.162Z,1002.81
2017-04-13T06:03:46.760Z,1002.81
2017-04-13T06:04:27.313Z,1002.77
2017-04-13T06:05:07.910Z,1002.8
2017-04-13T06:05:48.511Z,1002.81
2017-04-13T06:06:29.092Z,1002.81
2017-04-13T06:07:09.663Z,1002.76
2017-04-13T06:07:50.249Z,1002.75
2017-04-13T06:08:30.855Z,1002.82
2017-04-13T06:09:11.430Z,1002.72
2017-04-13T06:09:52.004Z,1002.76
2017-04-13T06:10:32.587Z,1002.78
2017-04-13T06:11:13.178Z,1002.81
2017-04-13T06:11:53.801Z,1002.8
2017-04-13T06:12:34.388Z,1002.81
2017-04-13T06:13:14.980Z,1002.84
2017-04-13T06:13:55.600Z,1002.8
2017-04-13T06:14:36.193Z,1002.86
2017-04-13T06:15:16.782Z,1002.92
2017-04-13T06:15:57.353Z,1002.83
2017-04-13T06:16:37.968Z,1002.83
2017-04-13T06:17:18.537Z,1002.89
2017-04-13T06:17:59.124Z,1002.9
2017-04-13T06:18:39.766Z,1002.87
2017-04-13T06:19:20.336Z,1002.96
2017-04-13T06:20:00.954Z,1002.92
2017-04-13T06:20:41.575Z,1002.94
2017-04-13T06:21:22.165Z,1002.93
2017-04-13T06:22:02.729Z,1002.98
2017-04-13T06:22:43.307Z,1002.98
2017-04-13T06:23:23.889Z,1002.96
2017-04-13T06:24:04.484Z,1002.95
2017-04-13T06:24:45.055Z,1002.99
2017-04-13T06:25:25.611Z,1002.99
2017-04-13T06:26:06.175Z,1003.01
2017-04-13T06:26:46.782Z,1003.01
2017-04-13T06:27:27.371Z,1003.07
2017-04-13T06:28:07.949Z,1003.1
2017-04-13T06:28:48.551Z,1003.12
2017-04-13T06:29:29.128Z,1003.14
2017-04-13T06:30:09.719Z,1003.16
2017-04-13T06:30:50.316Z,1003.13
2017-04-13T06:31:30.906Z,1003.18
2017-04-13T06:32:11.507Z,1003.27
2017-04-13T06:32:52.080Z,1003.21
2017-04-13T06:33:32.640Z,1003.17
2017-04-13T06:34:13.304Z,1003.17
2017-04-13T06:34:54.794Z,1003.18
2017-04-13T06:35:35.381Z,1003.18
2017-04-13T06:36:16.027Z,1003.29
2017-04-13T06:36:56.597Z,1003.27
2017-04-13T06:37:37.191Z,1003.2
2017-04-13T06:38:17.784Z,1003.18
2017-04-13T06:38:58.348Z,1003.2
2017-04-13T06:39:39.252Z,1003.19
2017-04-13T06:40:20.848Z,1003.18
2017-04-13T06:41:04.441Z,1003.15
2017-04-13T06:41:45.911Z,1003.18
2017-04-13T06:42:26.539Z,1003.2
2017-04-13T06:43:07.117Z,1003.25
2017-04-13T06:43:48.332Z,1003.18
2017-04-13T06:44:30.529Z,1003.2
2017-04-13T06:45:11.181Z,1003.33
2017-04-13T06:45:52.894Z,1003.21
2017-04-13T06:46:33.496Z,1003.22
2017-04-13T06:47:15.638Z,1003.2
2017-04-13T06:47:57.674Z,1003.28
2017-04-13T06:48:38.282Z,1003.25
2017-04-13T06:49:18.901Z,1003.22
2017-04-13T06:49:59.785Z,1003.21
2017-04-13T06:50:42.480Z,1003.26
2017-04-13T06:51:27.934Z,1003.29
2017-04-13T06:52:12.208Z,1003.29
2017-04-13T06:52:53.062Z,1003.33
2017-04-13T06:53:33.911Z,1003.33
2017-04-13T06:54:14.608Z,1003.41
2017-04-13T06:54:57.230Z,1003.46
2017-04-13T06:55:40.777Z,1003.58
2017-04-13T06:56:24.878Z,1003.47
2017-04-13T06:57:09.332Z,1003.47
2017-04-13T06:57:52.479Z,1003.47
2017-04-13T06:58:33.075Z,1003.52
2017-04-13T06:59:13.779Z,1003.55
2017-04-13T06:59:54.885Z,1003.54
2017-04-13T07:00:35.501Z,1003.51
2017-04-13T07:01:16.060Z,1003.51
2017-04-13T07:01:56.629Z,1003.53
2017-04-13T07:02:37.221Z,1003.58
2017-04-13T07:03:17.809Z,1003.45
2017-04-13T07:03:58.377Z,1003.43
2017-04-13T07:04:39.155Z,1003.55
2017-04-13T07:05:19.747Z,1003.63
2017-04-13T07:06:00.362Z,1003.63
2017-04-13T07:06:42.795Z,1003.64
2017-04-13T07:07:26.798Z,1003.66
2017-04-13T07:08:07.373Z,1003.43
2017-04-13T07:08:47.959Z,1003.44
2017-04-13T07:09:28.597Z,1003.53
2017-04-13T07:10:11.380Z,1003.47
2017-04-13T07:10:55.656Z,1003.63
2017-04-13T07:11:36.436Z,1003.5
2017-04-13T07:12:18.093Z,1003.6
2017-04-13T07:13:00.173Z,1003.4
2017-04-13T07:13:42.073Z,1003.44
2017-04-13T07:14:24.843Z,1003.44
2017-04-13T07:15:07.823Z,1003.46
2017-04-13T07:15:49.958Z,1003.56
2017-04-13T07:16:31.150Z,1003.45
2017-04-13T07:17:11.761Z,1003.44
2017-04-13T07:17:52.348Z,1003.4
2017-04-13T07:18:33.064Z,1003.4
2017-04-13T07:19:13.646Z,1003.34
2017-04-13T07:19:54.229Z,1003.52
2017-04-13T07:20:34.825Z,1003.54
2017-04-13T07:21:15.422Z,1003.55
2017-04-13T07:21:55.998Z,1003.59
2017-04-13T07:22:36.612Z,1003.57
2017-04-13T07:23:17.231Z,1003.59
2017-04-13T07:23:57.820Z,1003.59
2017-04-13T07:24:38.414Z,1003.6
2017-04-13T07:25:18.984Z,1003.51
2017-04-13T07:25:59.577Z,1003.39
2017-04-13T07:26:40.179Z,1003.58
2017-04-13T07:27:20.759Z,1003.59
2017-04-13T07:28:01.440Z,1003.65
2017-04-13T07:28:42.593Z,1003.48
2017-04-13T07:29:23.209Z,1003.4
2017-04-13T07:30:03.785Z,1003.44
2017-04-13T07:30:44.366Z,1003.59
2017-04-13T07:31:24.953Z,1003.63
2017-04-13T07:32:05.553Z,1003.63
2017-04-13T07:32:46.290Z,1003.41
2017-04-13T07:33:26.891Z,1003.65
2017-04-13T07:34:07.502Z,1003.66
2017-04-13T07:34:48.098Z,1003.66
2017-04-13T07:35:28.691Z,1003.7
2017-04-13T07:36:09.308Z,1003.73
2017-04-13T07:36:49.915Z,1003.81
2017-04-13T07:37:30.542Z,1003.76
2017-04-13T07:38:11.185Z,1003.72
2017-04-13T07:38:52.180Z,1003.74
2017-04-13T07:39:32.761Z,1003.74
2017-04-13T07:40:13.349Z,1003.72
2017-04-13T07:40:53.945Z,1003.83
2017-04-13T07:41:34.528Z,1003.66
2017-04-13T07:42:15.120Z,1003.83
2017-04-13T07:42:55.715Z,1003.63
2017-04-13T07:43:36.299Z,1003.62
2017-04-13T07:44:16.894Z,1003.85
2017-04-13T07:44:57.486Z,1003.81
2017-04-13T07:45:38.068Z,1003.8
2017-04-13T07:46:18.652Z,1003.84
2017-04-13T07:46:59.243Z,1003.91
2017-04-13T07:47:39.843Z,1003.86
2017-04-13T07:48:20.447Z,1003.8
2017-04-13T07:49:01.050Z,1003.63
2017-04-13T07:49:41.646Z,1003.62
2017-04-13T07:50:22.257Z,1003.64
2017-04-13T07:51:02.848Z,1003.71
2017-04-13T07:51:43.417Z,1003.91
2017-04-13T07:52:24.027Z,1003.94
2017-04-13T07:53:04.610Z,1003.94
2017-04-13T07:53:45.203Z,1004.03
2017-04-13T07:54:25.811Z,1003.76
2017-04-13T07:55:06.406Z,1003.92
2017-04-13T07:55:47.010Z,1003.79
2017-04-13T07:56:27.647Z,1003.75
2017-04-13T07:57:08.283Z,1003.69
2017-04-13T07:57:48.863Z,1003.93
2017-04-13T07:58:29.440Z,1003.76
2017-04-13T07:59:10.025Z,1003.93
2017-04-13T07:59:50.636Z,1003.79
2017-04-13T08:00:31.225Z,1003.79
2017-04-13T08:01:11.862Z,1003.73
2017-04-13T08:01:52.438Z,1003.77
2017-04-13T08:02:33.035Z,1003.74
2017-04-13T08:03:13.647Z,1003.79
2017-04-13T08:03:54.226Z,1003.73
2017-04-13T08:04:34.805Z,1003.74
2017-04-13T08:05:15.387Z,1003.77
2017-04-13T08:05:56.018Z,1003.78
2017-04-13T08:06:36.611Z,1003.76
2017-04-13T08:07:17.237Z,1003.83
2017-04-13T08:07:57.775Z,1003.91
2017-04-13T08:08:38.393Z,1003.94
2017-04-13T08:09:18.954Z,1003.82
2017-04-13T08:09:59.552Z,1003.82
2017-04-13T08:10:40.166Z,1003.87
2017-04-13T08:11:20.755Z,1003.92
2017-04-13T08:12:01.342Z,1003.81
2017-04-13T08:12:41.906Z,1003.82
2017-04-13T08:13:22.496Z,1003.83
2017-04-13T08:14:03.083Z,1003.78
2017-04-13T08:14:43.661Z,1003.82
2017-04-13T08:15:24.250Z,1003.81
2017-04-13T08:16:04.829Z,1003.79
2017-04-13T08:16:45.430Z,1003.8
2017-04-13T08:17:26.064Z,1003.78
2017-04-13T08:18:06.595Z,1003.8